createdAt,value
2023-01-11T00:00:02.112Z,25.53
2023-01-11T00:00:12.113Z,25.54
2023-01-11T00:00:22.126Z,25.54
2023-01-11T00:00:32.241Z,25.54
2023-01-11T00:00:42.250Z,25.53
2023-01-11T00:00:52.507Z,25.53
2023-01-11T00:01:02.523Z,25.54
2023-01-11T00:01:12.512Z,25.53
2023-01-11T00:01:22.525Z,25.53
2023-01-11T00:01:32.549Z,25.53
2023-01-11T00:01:42.550Z,25.53
2023-01-11T00:01:52.710Z,25.53
2023-01-11T00:02:02.742Z,25.52
2023-01-11T00:02:12.793Z,25.52
2023-01-11T00:02:22.913Z,25.52
2023-01-11T00:02:33.124Z,25.52
2023-01-11T00:02:43.123Z,25.53
2023-01-11T00:02:53.128Z,25.52
2023-01-11T00:03:03.126Z,25.53
2023-01-11T00:03:13.271Z,25.53
2023-01-11T00:03:23.271Z,25.53
2023-01-11T00:03:33.269Z,25.53
2023-01-11T00:03:43.272Z,25.53
2023-01-11T00:03:53.275Z,25.54
2023-01-11T00:04:03.275Z,25.53
2023-01-11T00:04:13.581Z,25.52
2023-01-11T00:04:23.630Z,25.52
2023-01-11T00:04:33.675Z,25.52
2023-01-11T00:04:43.738Z,25.52
2023-01-11T00:04:53.780Z,25.52
2023-01-11T00:05:03.770Z,25.51
2023-01-11T00:05:13.773Z,25.51
2023-01-11T00:05:23.799Z,25.51
2023-01-11T00:05:33.789Z,25.52
2023-01-11T00:05:43.812Z,25.52
2023-01-11T00:05:53.815Z,25.52
2023-01-11T00:06:03.827Z,25.53
2023-01-11T00:06:13.834Z,25.53
2023-01-11T00:06:23.929Z,25.54
2023-01-11T00:06:34.020Z,25.54
2023-01-11T00:06:44.074Z,25.53
2023-01-11T00:06:54.207Z,25.53
2023-01-11T00:07:04.354Z,25.52
2023-01-11T00:07:14.469Z,25.53
2023-01-11T00:07:24.474Z,25.52
2023-01-11T00:07:34.734Z,25.52
2023-01-11T00:07:44.767Z,25.52
2023-01-11T00:07:54.779Z,25.51
2023-01-11T00:08:04.794Z,25.52
2023-01-11T00:08:14.812Z,25.52
2023-01-11T00:08:24.813Z,25.52
2023-01-11T00:08:34.935Z,25.51
2023-01-11T00:08:44.946Z,25.51
2023-01-11T00:08:54.955Z,25.52
2023-01-11T00:09:04.951Z,25.51
2023-01-11T00:09:15.207Z,25.51
2023-01-11T00:09:25.242Z,25.50
2023-01-11T00:09:35.231Z,25.50
2023-01-11T00:09:45.229Z,25.50
2023-01-11T00:09:55.276Z,25.50
2023-01-11T00:10:05.275Z,25.50
2023-01-11T00:10:15.285Z,25.49
2023-01-11T00:10:25.291Z,25.49
2023-01-11T00:10:35.303Z,25.50
2023-01-11T00:10:45.317Z,25.50
2023-01-11T00:10:55.321Z,25.51
2023-01-11T00:11:05.325Z,25.50
2023-01-11T00:11:15.343Z,25.51
2023-01-11T00:11:25.342Z,25.50
2023-01-11T00:11:35.370Z,25.50
2023-01-11T00:11:45.366Z,25.50
2023-01-11T00:11:55.377Z,25.50
2023-01-11T00:12:05.403Z,25.50
2023-01-11T00:12:15.408Z,25.50
2023-01-11T00:12:25.412Z,25.50
2023-01-11T00:12:35.423Z,25.51
2023-01-11T00:12:45.427Z,25.50
2023-01-11T00:12:55.432Z,25.51
2023-01-11T00:13:05.439Z,25.51
2023-01-11T00:13:15.452Z,25.51
2023-01-11T00:13:25.465Z,25.52
2023-01-11T00:13:35.475Z,25.53
2023-01-11T00:13:45.473Z,25.53
2023-01-11T00:13:55.491Z,25.53
2023-01-11T00:14:05.500Z,25.54
2023-01-11T00:14:15.523Z,25.54
2023-01-11T00:14:25.526Z,25.53
2023-01-11T00:14:35.533Z,25.54
2023-01-11T00:14:45.538Z,25.53
2023-01-11T00:14:55.538Z,25.53
2023-01-11T00:15:05.541Z,25.53
2023-01-11T00:15:15.545Z,25.53
2023-01-11T00:15:25.553Z,25.53
2023-01-11T00:15:35.961Z,25.53
2023-01-11T00:15:46.032Z,25.54
2023-01-11T00:15:56.092Z,25.54
2023-01-11T00:16:06.204Z,25.54
2023-01-11T00:16:16.370Z,25.54
2023-01-11T00:16:26.423Z,25.55
2023-01-11T00:16:36.346Z,25.55
2023-01-11T00:16:46.364Z,25.55
2023-01-11T00:16:56.369Z,25.55
2023-01-11T00:17:06.386Z,25.54
2023-01-11T00:17:16.388Z,25.54
2023-01-11T00:17:26.404Z,25.53
2023-01-11T00:17:36.424Z,25.54
2023-01-11T00:17:46.436Z,25.54
2023-01-11T00:17:56.443Z,25.54
2023-01-11T00:18:06.477Z,25.55
2023-01-11T00:18:16.472Z,25.54
2023-01-11T00:18:26.500Z,25.55
2023-01-11T00:18:36.481Z,25.55
2023-01-11T00:18:46.481Z,25.55
2023-01-11T00:18:56.495Z,25.56
2023-01-11T00:19:06.502Z,25.55
2023-01-11T00:19:16.504Z,25.56
2023-01-11T00:19:26.514Z,25.56
2023-01-11T00:19:36.528Z,25.56
2023-01-11T00:19:46.553Z,25.56
2023-01-11T00:19:56.550Z,25.56
2023-01-11T00:20:06.561Z,25.54
2023-01-11T00:20:16.573Z,25.54
2023-01-11T00:20:26.575Z,25.54
2023-01-11T00:20:36.703Z,25.54
2023-01-11T00:20:46.974Z,25.54
2023-01-11T00:20:56.961Z,25.54
2023-01-11T00:21:06.981Z,25.54
2023-01-11T00:21:16.974Z,25.54
2023-01-11T00:21:26.995Z,25.53
2023-01-11T00:21:37.022Z,25.52
2023-01-11T00:21:47.017Z,25.53
2023-01-11T00:21:57.140Z,25.54
2023-01-11T00:22:07.140Z,25.54
2023-01-11T00:22:17.150Z,25.55
2023-01-11T00:22:27.401Z,25.55
2023-01-11T00:22:37.408Z,25.56
2023-01-11T00:22:47.432Z,25.55
2023-01-11T00:22:57.422Z,25.56
2023-01-11T00:23:07.433Z,25.57
2023-01-11T00:23:17.440Z,25.56
2023-01-11T00:23:27.444Z,25.56
2023-01-11T00:23:37.452Z,25.57
2023-01-11T00:23:47.458Z,25.57
2023-01-11T00:23:57.465Z,25.57
2023-01-11T00:24:07.465Z,25.56
2023-01-11T00:24:17.472Z,25.55
2023-01-11T00:24:27.583Z,25.56
2023-01-11T00:24:37.581Z,25.55
2023-01-11T00:24:47.589Z,25.55
2023-01-11T00:24:57.588Z,25.55
2023-01-11T00:25:07.592Z,25.55
2023-01-11T00:25:17.859Z,25.54
2023-01-11T00:25:27.861Z,25.53
2023-01-11T00:25:37.871Z,25.53
2023-01-11T00:25:48.241Z,25.52
2023-01-11T00:25:58.245Z,25.51
2023-01-11T00:26:08.360Z,25.51
2023-01-11T00:26:18.622Z,25.52
2023-01-11T00:26:28.636Z,25.52
2023-01-11T00:26:38.647Z,25.52
2023-01-11T00:26:48.665Z,25.52
2023-01-11T00:26:58.670Z,25.53
2023-01-11T00:27:08.670Z,25.52
2023-01-11T00:27:18.685Z,25.52
2023-01-11T00:27:28.703Z,25.51
2023-01-11T00:27:38.705Z,25.50
2023-01-11T00:27:48.710Z,25.49
2023-01-11T00:27:58.734Z,25.49
2023-01-11T00:28:08.766Z,25.49
2023-01-11T00:28:18.759Z,25.49
2023-01-11T00:28:28.767Z,25.47
2023-01-11T00:28:38.873Z,25.49
2023-01-11T00:28:48.874Z,25.50
2023-01-11T00:28:58.878Z,25.49
2023-01-11T00:29:09.127Z,25.49
2023-01-11T00:29:19.139Z,25.49
2023-01-11T00:29:29.149Z,25.49
2023-01-11T00:29:39.157Z,25.50
2023-01-11T00:29:49.171Z,25.49
2023-01-11T00:29:59.181Z,25.49
2023-01-11T00:30:09.225Z,25.49
2023-01-11T00:30:19.232Z,25.47
2023-01-11T00:30:29.231Z,25.47
2023-01-11T00:30:39.241Z,25.47
2023-01-11T00:30:49.245Z,25.47
2023-01-11T00:30:59.319Z,25.48
2023-01-11T00:31:09.406Z,25.48
2023-01-11T00:31:19.496Z,25.49
2023-01-11T00:31:29.581Z,25.47
2023-01-11T00:31:39.639Z,25.46
2023-01-11T00:31:49.651Z,25.46
2023-01-11T00:31:59.942Z,25.47
2023-01-11T00:32:10.060Z,25.47
2023-01-11T00:32:20.061Z,25.47
2023-01-11T00:32:30.329Z,25.48
2023-01-11T00:32:40.344Z,25.47
2023-01-11T00:32:50.350Z,25.47
2023-01-11T00:33:00.373Z,25.47
2023-01-11T00:33:10.373Z,25.47
2023-01-11T00:33:20.375Z,25.46
2023-01-11T00:33:30.418Z,25.46
2023-01-11T00:33:40.433Z,25.45
2023-01-11T00:33:50.541Z,25.44
2023-01-11T00:34:00.559Z,25.44
2023-01-11T00:34:10.801Z,25.43
2023-01-11T00:34:20.836Z,25.42
2023-01-11T00:34:30.817Z,25.42
2023-01-11T00:34:40.827Z,25.42
2023-01-11T00:34:50.850Z,25.42
2023-01-11T00:35:00.863Z,25.42
2023-01-11T00:35:10.864Z,25.42
2023-01-11T00:35:20.871Z,25.41
2023-01-11T00:35:30.868Z,25.42
2023-01-11T00:35:40.877Z,25.42
2023-01-11T00:35:50.894Z,25.42
2023-01-11T00:36:00.914Z,25.42
2023-01-11T00:36:11.066Z,25.42
2023-01-11T00:36:21.053Z,25.42
2023-01-11T00:36:31.067Z,25.41
2023-01-11T00:36:41.098Z,25.40
2023-01-11T00:36:51.083Z,25.40
2023-01-11T00:37:01.362Z,25.39
2023-01-11T00:37:11.365Z,25.39
2023-01-11T00:37:21.383Z,25.39
2023-01-11T00:37:31.394Z,25.39
2023-01-11T00:37:41.400Z,25.39
2023-01-11T00:37:51.426Z,25.39
2023-01-11T00:38:01.444Z,25.39
2023-01-11T00:38:11.442Z,25.38
2023-01-11T00:38:21.447Z,25.37
2023-01-11T00:38:31.452Z,25.37
2023-01-11T00:38:41.459Z,25.37
2023-01-11T00:38:51.733Z,25.38
2023-01-11T00:39:01.574Z,25.38
2023-01-11T00:39:11.595Z,25.37
2023-01-11T00:39:21.608Z,25.37
2023-01-11T00:39:31.604Z,25.37
2023-01-11T00:39:41.630Z,25.37
2023-01-11T00:39:51.895Z,25.37
2023-01-11T00:40:01.886Z,25.37
2023-01-11T00:40:11.892Z,25.36
2023-01-11T00:40:21.924Z,25.36
2023-01-11T00:40:31.929Z,25.37
2023-01-11T00:40:41.932Z,25.36
2023-01-11T00:40:51.936Z,25.35
2023-01-11T00:41:01.954Z,25.35
2023-01-11T00:41:12.061Z,25.35
2023-01-11T00:41:22.062Z,25.35
2023-01-11T00:41:32.334Z,25.35
2023-01-11T00:41:42.331Z,25.35
2023-01-11T00:41:52.348Z,25.34
2023-01-11T00:42:02.366Z,25.34
2023-01-11T00:42:12.380Z,25.34
2023-01-11T00:42:22.384Z,25.33
2023-01-11T00:42:32.388Z,25.33
2023-01-11T00:42:42.406Z,25.33
2023-01-11T00:42:52.418Z,25.32
2023-01-11T00:43:02.421Z,25.32
2023-01-11T00:43:12.790Z,25.33
2023-01-11T00:43:22.816Z,25.33
2023-01-11T00:43:32.830Z,25.31
2023-01-11T00:43:42.832Z,25.32
2023-01-11T00:43:52.849Z,25.32
2023-01-11T00:44:02.848Z,25.31
2023-01-11T00:44:12.967Z,25.30
2023-01-11T00:44:22.972Z,25.30
2023-01-11T00:44:32.984Z,25.29
2023-01-11T00:44:42.979Z,25.31
2023-01-11T00:44:53.243Z,25.31
2023-01-11T00:45:03.247Z,25.31
2023-01-11T00:45:13.396Z,25.30
2023-01-11T00:45:23.661Z,25.30
2023-01-11T00:45:33.662Z,25.30
2023-01-11T00:45:43.666Z,25.30
2023-01-11T00:45:53.780Z,25.30
2023-01-11T00:46:03.873Z,25.30
2023-01-11T00:46:13.980Z,25.30
2023-01-11T00:46:24.065Z,25.29
2023-01-11T00:46:34.085Z,25.28
2023-01-11T00:46:44.098Z,25.27
2023-01-11T00:46:54.101Z,25.28
2023-01-11T00:47:04.353Z,25.27
2023-01-11T00:47:14.385Z,25.27
2023-01-11T00:47:24.369Z,25.27
2023-01-11T00:47:34.746Z,25.26
2023-01-11T00:47:44.761Z,25.25
2023-01-11T00:47:54.749Z,25.25
2023-01-11T00:48:04.928Z,25.25
2023-01-11T00:48:14.827Z,25.25
2023-01-11T00:48:24.836Z,25.25
2023-01-11T00:48:34.871Z,25.25
2023-01-11T00:48:44.987Z,25.25
2023-01-11T00:48:55.125Z,25.24
2023-01-11T00:49:05.126Z,25.25
2023-01-11T00:49:15.383Z,25.25
2023-01-11T00:49:25.389Z,25.25
2023-01-11T00:49:35.395Z,25.24
2023-01-11T00:49:45.388Z,25.23
2023-01-11T00:49:55.516Z,25.24
2023-01-11T00:50:05.538Z,25.24
2023-01-11T00:50:15.545Z,25.23
2023-01-11T00:50:25.560Z,25.23
2023-01-11T00:50:35.565Z,25.22
2023-01-11T00:50:45.571Z,25.23
2023-01-11T00:50:55.846Z,25.22
2023-01-11T00:51:05.848Z,25.22
2023-01-11T00:51:15.870Z,25.22
2023-01-11T00:51:25.869Z,25.22
2023-01-11T00:51:35.875Z,25.23
2023-01-11T00:51:45.906Z,25.22
2023-01-11T00:51:55.879Z,25.22
2023-01-11T00:52:05.890Z,25.21
2023-01-11T00:52:16.015Z,25.21
2023-01-11T00:52:26.015Z,25.20
2023-01-11T00:52:36.273Z,25.20
2023-01-11T00:52:46.281Z,25.19
2023-01-11T00:52:56.390Z,25.19
2023-01-11T00:53:06.657Z,25.18
2023-01-11T00:53:16.769Z,25.19
2023-01-11T00:53:26.770Z,25.19
2023-01-11T00:53:37.041Z,25.18
2023-01-11T00:53:47.046Z,25.17
2023-01-11T00:53:57.179Z,25.18
2023-01-11T00:54:07.452Z,25.16
2023-01-11T00:54:17.454Z,25.17
2023-01-11T00:54:27.467Z,25.16
2023-01-11T00:54:37.473Z,25.16
2023-01-11T00:54:47.479Z,25.15
2023-01-11T00:54:57.606Z,25.15
2023-01-11T00:55:07.602Z,25.14
2023-01-11T00:55:17.732Z,25.14
2023-01-11T00:55:27.734Z,25.14
2023-01-11T00:55:37.860Z,25.14
2023-01-11T00:55:47.868Z,25.14
2023-01-11T00:55:57.870Z,25.14
2023-01-11T00:56:07.877Z,25.13
2023-01-11T00:56:18.246Z,25.13
2023-01-11T00:56:28.248Z,25.13
2023-01-11T00:56:38.363Z,25.12
2023-01-11T00:56:48.623Z,25.12
2023-01-11T00:56:58.748Z,25.13
2023-01-11T00:57:08.746Z,25.12
2023-01-11T00:57:18.997Z,25.12
2023-01-11T00:57:29.028Z,25.11
2023-01-11T00:57:39.017Z,25.11
2023-01-11T00:57:49.026Z,25.11
2023-01-11T00:57:59.058Z,25.11
2023-01-11T00:58:09.069Z,25.12
2023-01-11T00:58:19.063Z,25.11
2023-01-11T00:58:29.071Z,25.11
2023-01-11T00:58:39.192Z,25.11
2023-01-11T00:58:49.192Z,25.10
2023-01-11T00:58:59.449Z,25.10
2023-01-11T00:59:09.472Z,25.11
2023-01-11T00:59:19.480Z,25.10
2023-01-11T00:59:29.488Z,25.10
2023-01-11T00:59:39.702Z,25.10
2023-01-11T00:59:49.562Z,25.09
2023-01-11T00:59:59.568Z,25.10
2023-01-11T01:00:09.575Z,25.09
2023-01-11T01:00:19.693Z,25.09
2023-01-11T01:00:29.704Z,25.09
2023-01-11T01:00:39.945Z,25.09
2023-01-11T01:00:49.945Z,25.08
2023-01-11T01:01:00.189Z,25.08
2023-01-11T01:01:10.363Z,25.08
2023-01-11T01:01:20.455Z,25.08
2023-01-11T01:01:30.480Z,25.07
2023-01-11T01:01:40.554Z,25.07
2023-01-11T01:01:50.570Z,25.06
2023-01-11T01:02:00.582Z,25.07
2023-01-11T01:02:10.669Z,25.06
2023-01-11T01:02:20.705Z,25.07
2023-01-11T01:02:30.722Z,25.06
2023-01-11T01:02:40.801Z,25.05
2023-01-11T01:02:51.118Z,25.05
2023-01-11T01:03:01.155Z,25.05
2023-01-11T01:03:11.178Z,25.04
2023-01-11T01:03:21.163Z,25.04
2023-01-11T01:03:31.169Z,25.04
2023-01-11T01:03:41.288Z,25.04
2023-01-11T01:03:51.298Z,25.04
2023-01-11T01:04:01.423Z,25.04
2023-01-11T01:04:11.424Z,25.04
2023-01-11T01:04:21.427Z,25.03
2023-01-11T01:04:31.572Z,25.04
2023-01-11T01:04:41.577Z,25.04
2023-01-11T01:04:51.564Z,25.04
2023-01-11T01:05:02.028Z,25.03
2023-01-11T01:05:12.006Z,25.05
2023-01-11T01:05:22.023Z,25.04
2023-01-11T01:05:32.014Z,25.03
2023-01-11T01:05:42.068Z,25.04
2023-01-11T01:05:52.072Z,25.03
2023-01-11T01:06:02.102Z,25.03
2023-01-11T01:06:12.128Z,25.03
2023-01-11T01:06:22.187Z,25.02
2023-01-11T01:06:32.269Z,25.03
2023-01-11T01:06:42.312Z,25.02
2023-01-11T01:06:52.397Z,25.01
2023-01-11T01:07:02.409Z,25.03
2023-01-11T01:07:12.419Z,25.02
2023-01-11T01:07:22.432Z,25.01
2023-01-11T01:07:32.424Z,25.02
2023-01-11T01:07:42.427Z,25.02
2023-01-11T01:07:52.679Z,25.01
2023-01-11T01:08:02.677Z,25.01
2023-01-11T01:08:12.686Z,25.01
2023-01-11T01:08:22.689Z,25.01
2023-01-11T01:08:32.813Z,25.00
2023-01-11T01:08:42.812Z,25.01
2023-01-11T01:08:52.822Z,25.00
2023-01-11T01:09:02.834Z,25.00
2023-01-11T01:09:12.835Z,25.00
2023-01-11T01:09:22.826Z,25.01
2023-01-11T01:09:33.094Z,25.00
2023-01-11T01:09:43.091Z,24.99
2023-01-11T01:09:53.209Z,24.99
2023-01-11T01:10:03.469Z,24.99
2023-01-11T01:10:13.598Z,24.99
2023-01-11T01:10:23.590Z,24.99
2023-01-11T01:10:33.845Z,24.99
2023-01-11T01:10:43.859Z,24.99
2023-01-11T01:10:53.871Z,24.99
2023-01-11T01:11:03.892Z,24.99
2023-01-11T01:11:13.891Z,24.98
2023-01-11T01:11:23.893Z,24.98
2023-01-11T01:11:33.904Z,24.98
2023-01-11T01:11:43.925Z,24.98
2023-01-11T01:11:53.923Z,24.97
2023-01-11T01:12:03.938Z,24.98
2023-01-11T01:12:13.938Z,24.98
2023-01-11T01:12:23.970Z,24.98
2023-01-11T01:12:33.962Z,24.98
2023-01-11T01:12:43.977Z,24.98
2023-01-11T01:12:53.983Z,24.96
2023-01-11T01:13:04.012Z,24.96
2023-01-11T01:13:14.043Z,24.97
2023-01-11T01:13:24.047Z,24.96
2023-01-11T01:13:34.099Z,24.96
2023-01-11T01:13:44.095Z,24.96
2023-01-11T01:13:54.222Z,24.96
2023-01-11T01:14:04.224Z,24.96
2023-01-11T01:14:14.229Z,24.96
2023-01-11T01:14:24.242Z,24.96
2023-01-11T01:14:34.501Z,24.96
2023-01-11T01:14:44.500Z,24.95
2023-01-11T01:14:54.510Z,24.95
2023-01-11T01:15:04.514Z,24.95
2023-01-11T01:15:14.632Z,24.95
2023-01-11T01:15:24.653Z,24.96
2023-01-11T01:15:34.711Z,24.95
2023-01-11T01:15:44.774Z,24.94
2023-01-11T01:15:54.858Z,24.94
2023-01-11T01:16:04.914Z,24.94
2023-01-11T01:16:15.061Z,24.94
2023-01-11T01:16:25.048Z,24.94
2023-01-11T01:16:35.068Z,24.94
2023-01-11T01:16:45.073Z,24.93
2023-01-11T01:16:55.213Z,24.94
2023-01-11T01:17:05.205Z,24.93
2023-01-11T01:17:15.328Z,24.94
2023-01-11T01:17:25.344Z,24.93
2023-01-11T01:17:35.353Z,24.93
2023-01-11T01:17:45.361Z,24.93
2023-01-11T01:17:55.505Z,24.92
2023-01-11T01:18:05.509Z,24.92
2023-01-11T01:18:15.636Z,24.92
2023-01-11T01:18:25.905Z,24.92
2023-01-11T01:18:35.905Z,24.92
2023-01-11T01:18:45.900Z,24.91
2023-01-11T01:18:55.905Z,24.91
2023-01-11T01:19:05.911Z,24.92
2023-01-11T01:19:15.920Z,24.91
2023-01-11T01:19:25.925Z,24.91
2023-01-11T01:19:36.048Z,24.91
2023-01-11T01:19:46.051Z,24.91
2023-01-11T01:19:56.172Z,24.91
2023-01-11T01:20:06.322Z,24.91
2023-01-11T01:20:16.329Z,24.91
2023-01-11T01:20:26.337Z,24.91
2023-01-11T01:20:36.399Z,24.90
2023-01-11T01:20:46.389Z,24.89
2023-01-11T01:20:56.393Z,24.90
2023-01-11T01:21:06.405Z,24.89
2023-01-11T01:21:16.417Z,24.89
2023-01-11T01:21:26.426Z,24.89
2023-01-11T01:21:36.434Z,24.89
2023-01-11T01:21:46.444Z,24.89
2023-01-11T01:21:56.474Z,24.88
2023-01-11T01:22:06.510Z,24.89
2023-01-11T01:22:16.516Z,24.88
2023-01-11T01:22:26.522Z,24.89
2023-01-11T01:22:36.529Z,24.88
2023-01-11T01:22:46.536Z,24.89
2023-01-11T01:22:56.532Z,24.88
2023-01-11T01:23:06.536Z,24.88
2023-01-11T01:23:16.546Z,24.88
2023-01-11T01:23:26.542Z,24.88
2023-01-11T01:23:36.676Z,24.88
2023-01-11T01:23:46.682Z,24.88
2023-01-11T01:23:56.689Z,24.88
2023-01-11T01:24:06.945Z,24.88
2023-01-11T01:24:16.960Z,24.88
2023-01-11T01:24:26.980Z,24.88
2023-01-11T01:24:36.974Z,24.87
2023-01-11T01:24:46.990Z,24.88
2023-01-11T01:24:56.993Z,24.88
2023-01-11T01:25:07.012Z,24.88
2023-01-11T01:25:17.019Z,24.88
2023-01-11T01:25:27.020Z,24.87
2023-01-11T01:25:37.139Z,24.86
2023-01-11T01:25:47.414Z,24.86
2023-01-11T01:25:57.401Z,24.86
2023-01-11T01:26:07.406Z,24.86
2023-01-11T01:26:17.799Z,24.86
2023-01-11T01:26:27.796Z,24.85
2023-01-11T01:26:37.804Z,24.86
2023-01-11T01:26:47.804Z,24.85
2023-01-11T01:26:57.835Z,24.85
2023-01-11T01:27:07.832Z,24.85
2023-01-11T01:27:17.831Z,24.85
2023-01-11T01:27:27.871Z,24.85
2023-01-11T01:27:37.865Z,24.85
2023-01-11T01:27:47.888Z,24.85
2023-01-11T01:27:57.880Z,24.84
2023-01-11T01:28:07.908Z,24.84
2023-01-11T01:28:17.908Z,24.84
2023-01-11T01:28:27.919Z,24.84
2023-01-11T01:28:37.917Z,24.83
2023-01-11T01:28:47.937Z,24.83
2023-01-11T01:28:58.070Z,24.83
2023-01-11T01:29:08.331Z,24.83
2023-01-11T01:29:18.454Z,24.83
2023-01-11T01:29:28.462Z,24.83
2023-01-11T01:29:38.720Z,24.83
2023-01-11T01:29:48.726Z,24.84
2023-01-11T01:29:58.731Z,24.83
2023-01-11T01:30:08.739Z,24.83
2023-01-11T01:30:18.756Z,24.82
2023-01-11T01:30:28.764Z,24.82
2023-01-11T01:30:38.768Z,24.83
2023-01-11T01:30:48.784Z,24.83
2023-01-11T01:30:58.823Z,24.83
2023-01-11T01:31:08.865Z,24.82
2023-01-11T01:31:18.953Z,24.82
2023-01-11T01:31:29.040Z,24.82
2023-01-11T01:31:39.069Z,24.82
2023-01-11T01:31:49.063Z,24.82
2023-01-11T01:31:59.078Z,24.82
2023-01-11T01:32:09.077Z,24.82
2023-01-11T01:32:19.196Z,24.82
2023-01-11T01:32:29.484Z,24.82
2023-01-11T01:32:39.491Z,24.82
2023-01-11T01:32:49.516Z,24.82
2023-01-11T01:32:59.513Z,24.81
2023-01-11T01:33:09.522Z,24.81
2023-01-11T01:33:19.533Z,24.80
2023-01-11T01:33:29.537Z,24.81
2023-01-11T01:33:39.549Z,24.81
2023-01-11T01:33:49.562Z,24.80
2023-01-11T01:33:59.567Z,24.81
2023-01-11T01:34:09.580Z,24.80
2023-01-11T01:34:19.590Z,24.80
2023-01-11T01:34:29.601Z,24.80
2023-01-11T01:34:39.613Z,24.80
2023-01-11T01:34:49.638Z,24.80
2023-01-11T01:34:59.658Z,24.80
2023-01-11T01:35:09.661Z,24.80
2023-01-11T01:35:19.668Z,24.80
2023-01-11T01:35:29.675Z,24.80
2023-01-11T01:35:39.679Z,24.80
2023-01-11T01:35:49.681Z,24.79
2023-01-11T01:35:59.810Z,24.80
2023-01-11T01:36:09.824Z,24.80
2023-01-11T01:36:19.821Z,24.80
2023-01-11T01:36:30.086Z,24.79
2023-01-11T01:36:40.090Z,24.80
2023-01-11T01:36:50.115Z,24.80
2023-01-11T01:37:00.130Z,24.80
2023-01-11T01:37:10.127Z,24.79
2023-01-11T01:37:20.130Z,24.79
2023-01-11T01:37:30.132Z,24.79
2023-01-11T01:37:40.162Z,24.79
2023-01-11T01:37:50.163Z,24.79
2023-01-11T01:38:00.173Z,24.79
2023-01-11T01:38:10.182Z,24.79
2023-01-11T01:38:20.189Z,24.79
2023-01-11T01:38:30.191Z,24.78
2023-01-11T01:38:40.204Z,24.78
2023-01-11T01:38:50.209Z,24.78
2023-01-11T01:39:00.203Z,24.78
2023-01-11T01:39:10.204Z,24.78
2023-01-11T01:39:20.225Z,24.78
2023-01-11T01:39:30.248Z,24.78
2023-01-11T01:39:40.248Z,24.78
2023-01-11T01:39:50.250Z,24.78
2023-01-11T01:40:00.381Z,24.78
2023-01-11T01:40:10.390Z,24.78
2023-01-11T01:40:20.510Z,24.78
2023-01-11T01:40:30.655Z,24.78
2023-01-11T01:40:40.664Z,24.77
2023-01-11T01:40:50.676Z,24.78
2023-01-11T01:41:00.669Z,24.78
2023-01-11T01:41:10.676Z,24.77
2023-01-11T01:41:20.676Z,24.78
2023-01-11T01:41:30.682Z,24.77
2023-01-11T01:41:40.699Z,24.77
2023-01-11T01:41:50.700Z,24.77
2023-01-11T01:42:00.713Z,24.77
2023-01-11T01:42:10.715Z,24.77
2023-01-11T01:42:20.737Z,24.77
2023-01-11T01:42:30.737Z,24.76
2023-01-11T01:42:40.755Z,24.77
2023-01-11T01:42:50.767Z,24.76
2023-01-11T01:43:00.899Z,24.76
2023-01-11T01:43:10.914Z,24.77
2023-01-11T01:43:21.173Z,24.77
2023-01-11T01:43:31.167Z,24.77
2023-01-11T01:43:41.285Z,24.77
2023-01-11T01:43:51.550Z,24.76
2023-01-11T01:44:01.564Z,24.76
2023-01-11T01:44:11.571Z,24.77
2023-01-11T01:44:21.572Z,24.76
2023-01-11T01:44:31.593Z,24.76
2023-01-11T01:44:41.601Z,24.77
2023-01-11T01:44:51.609Z,24.76
2023-01-11T01:45:01.627Z,24.76
2023-01-11T01:45:11.634Z,24.76
2023-01-11T01:45:21.650Z,24.76
2023-01-11T01:45:31.649Z,24.76
2023-01-11T01:45:41.661Z,24.75
2023-01-11T01:45:51.671Z,24.76
2023-01-11T01:46:01.768Z,24.75
2023-01-11T01:46:11.759Z,24.76
2023-01-11T01:46:21.786Z,24.75
2023-01-11T01:46:31.842Z,24.76
2023-01-11T01:46:41.956Z,24.76
2023-01-11T01:46:51.859Z,24.75
2023-01-11T01:47:01.855Z,24.75
2023-01-11T01:47:11.860Z,24.75
2023-01-11T01:47:21.997Z,24.75
2023-01-11T01:47:31.995Z,24.75
2023-01-11T01:47:42.016Z,24.75
2023-01-11T01:47:52.018Z,24.75
2023-01-11T01:48:02.028Z,24.75
2023-01-11T01:48:12.018Z,24.75
2023-01-11T01:48:22.145Z,24.75
2023-01-11T01:48:32.185Z,24.75
2023-01-11T01:48:42.177Z,24.75
2023-01-11T01:48:52.172Z,24.75
2023-01-11T01:49:02.435Z,24.75
2023-01-11T01:49:12.440Z,24.74
2023-01-11T01:49:22.438Z,24.75
2023-01-11T01:49:32.823Z,24.75
2023-01-11T01:49:42.828Z,24.74
2023-01-11T01:49:52.947Z,24.74
2023-01-11T01:50:03.216Z,24.74
2023-01-11T01:50:13.237Z,24.75
2023-01-11T01:50:23.238Z,24.74
2023-01-11T01:50:33.247Z,24.74
2023-01-11T01:50:43.267Z,24.74
2023-01-11T01:50:53.385Z,24.74
2023-01-11T01:51:03.383Z,24.74
2023-01-11T01:51:13.398Z,24.74
2023-01-11T01:51:23.405Z,24.74
2023-01-11T01:51:33.411Z,24.74
2023-01-11T01:51:43.679Z,24.74
2023-01-11T01:51:53.695Z,24.74
2023-01-11T01:52:03.727Z,24.73
2023-01-11T01:52:13.737Z,24.73
2023-01-11T01:52:23.727Z,24.73
2023-01-11T01:52:33.744Z,24.74
2023-01-11T01:52:43.742Z,24.74
2023-01-11T01:52:53.752Z,24.73
2023-01-11T01:53:03.752Z,24.73
2023-01-11T01:53:13.762Z,24.73
2023-01-11T01:53:23.776Z,24.73
2023-01-11T01:53:33.775Z,24.73
2023-01-11T01:53:43.778Z,24.73
2023-01-11T01:53:53.898Z,24.73
2023-01-11T01:54:03.929Z,24.73
2023-01-11T01:54:13.932Z,24.74
2023-01-11T01:54:23.989Z,24.73
2023-01-11T01:54:34.291Z,24.73
2023-01-11T01:54:44.306Z,24.73
2023-01-11T01:54:54.326Z,24.73
2023-01-11T01:55:04.333Z,24.73
2023-01-11T01:55:14.343Z,24.73
2023-01-11T01:55:24.343Z,24.73
2023-01-11T01:55:34.346Z,24.73
2023-01-11T01:55:44.373Z,24.73
2023-01-11T01:55:54.476Z,24.73
2023-01-11T01:56:04.476Z,24.73
2023-01-11T01:56:14.725Z,24.73
2023-01-11T01:56:24.726Z,24.73
2023-01-11T01:56:34.867Z,24.73
2023-01-11T01:56:45.125Z,24.73
2023-01-11T01:56:55.127Z,24.73
2023-01-11T01:57:05.143Z,24.72
2023-01-11T01:57:15.144Z,24.73
2023-01-11T01:57:25.159Z,24.72
2023-01-11T01:57:35.181Z,24.71
2023-01-11T01:57:45.187Z,24.71
2023-01-11T01:57:55.183Z,24.72
2023-01-11T01:58:05.199Z,24.72
2023-01-11T01:58:15.212Z,24.71
2023-01-11T01:58:25.222Z,24.72
2023-01-11T01:58:35.239Z,24.72
2023-01-11T01:58:45.237Z,24.72
2023-01-11T01:58:55.245Z,24.72
2023-01-11T01:59:05.255Z,24.72
2023-01-11T01:59:15.265Z,24.71
2023-01-11T01:59:25.273Z,24.71
2023-01-11T01:59:35.282Z,24.72
2023-01-11T01:59:45.311Z,24.72
2023-01-11T01:59:55.306Z,24.71
2023-01-11T02:00:05.325Z,24.70
2023-01-11T02:00:15.332Z,24.71
2023-01-11T02:00:25.377Z,24.70
2023-01-11T02:00:35.487Z,24.71
2023-01-11T02:00:45.767Z,24.71
2023-01-11T02:00:55.769Z,24.71
2023-01-11T02:01:05.772Z,24.71
2023-01-11T02:01:15.822Z,24.70
2023-01-11T02:01:25.880Z,24.70
2023-01-11T02:01:35.973Z,24.71
2023-01-11T02:01:46.026Z,24.71
2023-01-11T02:01:56.128Z,24.70
2023-01-11T02:02:06.164Z,24.70
2023-01-11T02:02:16.296Z,24.70
2023-01-11T02:02:26.399Z,24.70
2023-01-11T02:02:36.336Z,24.70
2023-01-11T02:02:46.379Z,24.71
2023-01-11T02:02:56.389Z,24.71
2023-01-11T02:03:06.526Z,24.70
2023-01-11T02:03:16.403Z,24.70
2023-01-11T02:03:26.425Z,24.70
2023-01-11T02:03:36.448Z,24.70
2023-01-11T02:03:46.451Z,24.70
2023-01-11T02:03:56.581Z,24.70
2023-01-11T02:04:06.841Z,24.70
2023-01-11T02:04:16.964Z,24.69
2023-01-11T02:04:26.991Z,24.70
2023-01-11T02:04:37.227Z,24.70
2023-01-11T02:04:47.324Z,24.69
2023-01-11T02:04:57.334Z,24.70
2023-01-11T02:05:07.340Z,24.69
2023-01-11T02:05:17.349Z,24.69
2023-01-11T02:05:27.343Z,24.70
2023-01-11T02:05:37.476Z,24.69
2023-01-11T02:05:47.472Z,24.70
2023-01-11T02:05:57.490Z,24.70
2023-01-11T02:06:07.477Z,24.70
2023-01-11T02:06:17.734Z,24.69
2023-01-11T02:06:27.779Z,24.70
2023-01-11T02:06:37.866Z,24.69
2023-01-11T02:06:47.875Z,24.69
2023-01-11T02:06:57.792Z,24.69
2023-01-11T02:07:07.872Z,24.69
2023-01-11T02:07:17.856Z,24.69
2023-01-11T02:07:27.997Z,24.69
2023-01-11T02:07:38.119Z,24.69
2023-01-11T02:07:48.145Z,24.68
2023-01-11T02:07:58.408Z,24.68
2023-01-11T02:08:08.410Z,24.68
2023-01-11T02:08:18.403Z,24.69
2023-01-11T02:08:28.407Z,24.69
2023-01-11T02:08:38.421Z,24.69
2023-01-11T02:08:48.430Z,24.68
2023-01-11T02:08:58.441Z,24.68
2023-01-11T02:09:08.450Z,24.69
2023-01-11T02:09:18.459Z,24.69